createdAt,value
2023-03-29T00:01:10.242Z,77.35
2023-03-29T00:03:39.694Z,76.67
2023-03-29T00:06:08.685Z,77.14
2023-03-29T00:08:39.065Z,76.22
2023-03-29T00:11:07.758Z,77.51
2023-03-29T00:13:36.832Z,77.31
2023-03-29T00:16:06.016Z,76.53
2023-03-29T00:18:34.532Z,76.31
2023-03-29T00:21:03.842Z,76.83
2023-03-29T00:23:32.518Z,76.34
2023-03-29T00:26:02.388Z,75.68
2023-03-29T00:28:31.359Z,75.17
2023-03-29T00:31:08.314Z,74.15
2023-03-29T00:33:37.117Z,73.51
2023-03-29T00:36:07.479Z,75.60
2023-03-29T00:38:37.327Z,75.57
2023-03-29T00:41:09.460Z,76.69
2023-03-29T00:44:03.643Z,75.69
2023-03-29T00:46:35.054Z,77.14
2023-03-29T00:49:08.892Z,75.62
2023-03-29T00:51:39.556Z,76.66
2023-03-29T00:54:15.173Z,75.48
2023-03-29T00:56:49.797Z,76.21
2023-03-29T00:59:22.581Z,76.31
2023-03-29T01:01:54.912Z,75.73
2023-03-29T01:04:29.719Z,76.95
2023-03-29T01:07:04.645Z,76.95
2023-03-29T01:09:57.603Z,76.25
2023-03-29T01:12:36.015Z,76.73
2023-03-29T01:15:08.397Z,77.14
2023-03-29T01:17:37.544Z,76.18
2023-03-29T01:20:15.364Z,77.70
2023-03-29T01:23:08.655Z,74.97
2023-03-29T01:25:46.783Z,76.53
2023-03-29T01:28:19.332Z,73.81
2023-03-29T01:30:53.234Z,72.68
2023-03-29T01:33:26.778Z,76.63
2023-03-29T01:36:01.759Z,74.52
2023-03-29T01:38:35.958Z,77.59
2023-03-29T01:41:05.314Z,78.99
2023-03-29T01:43:40.344Z,77.27
2023-03-29T01:46:16.078Z,75.17
2023-03-29T01:48:52.550Z,76.68
2023-03-29T01:51:26.869Z,77.41
2023-03-29T01:54:02.757Z,76.82
2023-03-29T01:56:37.605Z,76.46
2023-03-29T01:59:11.911Z,78.06
2023-03-29T02:01:49.334Z,77.92
2023-03-29T02:04:23.910Z,77.28
2023-03-29T02:06:54.703Z,76.82
2023-03-29T02:09:23.857Z,77.42
2023-03-29T02:11:54.136Z,77.94
2023-03-29T02:14:24.831Z,78.71
2023-03-29T02:16:53.825Z,77.74
2023-03-29T02:19:24.071Z,77.37
2023-03-29T02:22:01.970Z,78.42
2023-03-29T02:24:33.124Z,77.23
2023-03-29T02:27:02.386Z,77.09
2023-03-29T02:29:32.689Z,76.80
2023-03-29T02:32:08.045Z,80.42
2023-03-29T02:34:40.575Z,79.27
2023-03-29T02:37:15.713Z,76.52
2023-03-29T02:39:44.430Z,74.01
2023-03-29T02:42:14.951Z,71.89
2023-03-29T02:44:46.912Z,74.00
2023-03-29T02:47:20.924Z,75.44
2023-03-29T02:49:49.456Z,75.21
2023-03-29T02:52:23.968Z,76.54
2023-03-29T02:54:55.665Z,76.45
2023-03-29T02:57:26.530Z,77.16
2023-03-29T02:59:58.463Z,77.66
2023-03-29T03:02:27.877Z,76.60
2023-03-29T03:04:57.562Z,75.53
2023-03-29T03:07:26.093Z,77.43
2023-03-29T03:09:54.525Z,77.14
2023-03-29T03:12:22.979Z,78.64
2023-03-29T03:14:51.450Z,71.06
2023-03-29T03:17:23.130Z,71.42
2023-03-29T03:19:53.238Z,71.75
2023-03-29T03:22:21.767Z,73.35
2023-03-29T03:24:50.196Z,75.47
2023-03-29T03:27:19.025Z,76.19
2023-03-29T03:29:48.660Z,73.15
2023-03-29T03:32:17.540Z,77.04
2023-03-29T03:34:47.378Z,76.46
2023-03-29T03:37:15.826Z,77.70
2023-03-29T03:39:44.315Z,79.13
2023-03-29T03:42:12.980Z,79.51
2023-03-29T03:44:41.637Z,77.34
2023-03-29T03:47:10.093Z,78.71
2023-03-29T03:49:38.713Z,77.50
2023-03-29T03:52:08.949Z,77.79
2023-03-29T03:54:37.389Z,78.08
2023-03-29T03:57:06.337Z,76.19
2023-03-29T03:59:34.753Z,77.97
2023-03-29T04:02:03.230Z,76.06
2023-03-29T04:04:31.883Z,77.28
2023-03-29T04:07:02.860Z,80.32
2023-03-29T04:09:33.793Z,77.69
2023-03-29T04:12:03.074Z,77.60
2023-03-29T04:14:31.766Z,79.22
2023-03-29T04:17:00.219Z,80.00
2023-03-29T04:19:28.720Z,78.60
2023-03-29T04:21:57.146Z,79.76
2023-03-29T04:24:25.752Z,79.94
2023-03-29T04:26:55.617Z,80.23
2023-03-29T04:29:24.090Z,79.15
2023-03-29T04:31:53.034Z,80.67
2023-03-29T04:34:21.636Z,81.04
2023-03-29T04:36:50.890Z,81.67
2023-03-29T04:39:19.384Z,80.78
2023-03-29T04:41:48.736Z,80.20
2023-03-29T04:44:18.987Z,80.83
2023-03-29T04:46:47.575Z,80.69
2023-03-29T04:49:16.817Z,82.38
2023-03-29T04:51:45.287Z,81.39
2023-03-29T04:54:13.758Z,81.20
2023-03-29T04:56:42.646Z,81.89
2023-03-29T04:59:11.144Z,78.81
2023-03-29T05:01:42.057Z,80.03
2023-03-29T05:04:12.633Z,80.45
2023-03-29T05:06:41.989Z,81.09
2023-03-29T05:09:11.346Z,79.54
2023-03-29T05:11:39.963Z,81.13
2023-03-29T05:14:09.522Z,79.78
2023-03-29T05:16:38.114Z,80.12
2023-03-29T05:19:09.415Z,81.88
2023-03-29T05:21:38.610Z,82.20
2023-03-29T05:24:07.507Z,80.38
2023-03-29T05:26:35.970Z,80.51
2023-03-29T05:29:05.338Z,78.51
2023-03-29T05:31:34.047Z,79.76
2023-03-29T05:34:02.533Z,79.86
2023-03-29T05:36:35.491Z,80.50
2023-03-29T05:39:04.856Z,80.12
2023-03-29T05:41:33.641Z,79.76
2023-03-29T05:44:03.324Z,80.08
2023-03-29T05:46:31.777Z,80.46
2023-03-29T05:49:00.202Z,80.92
2023-03-29T05:51:28.790Z,80.44
2023-03-29T05:53:58.591Z,78.79
2023-03-29T05:56:27.509Z,79.15
2023-03-29T05:58:57.025Z,78.97
2023-03-29T06:01:25.978Z,76.87
2023-03-29T06:03:54.865Z,72.80
2023-03-29T06:06:23.498Z,75.43
2023-03-29T06:08:51.934Z,76.74
2023-03-29T06:11:22.362Z,72.49
2023-03-29T06:13:50.897Z,75.74
2023-03-29T06:16:20.155Z,75.56
2023-03-29T06:18:48.798Z,74.85
2023-03-29T06:21:17.241Z,74.33
2023-03-29T06:23:46.150Z,73.90
2023-03-29T06:26:14.891Z,72.41
2023-03-29T06:28:44.714Z,73.32
2023-03-29T06:31:13.246Z,71.96
2023-03-29T06:33:43.243Z,69.26
2023-03-29T06:36:14.031Z,64.14
2023-03-29T06:38:43.066Z,66.49
2023-03-29T06:41:12.261Z,64.79
2023-03-29T06:43:41.115Z,62.20
2023-03-29T06:46:12.351Z,64.87
2023-03-29T06:48:43.008Z,59.47
2023-03-29T06:51:12.031Z,65.47
2023-03-29T06:53:40.527Z,64.88
2023-03-29T06:56:10.154Z,61.13
2023-03-29T06:58:39.195Z,60.09
2023-03-29T07:01:08.445Z,57.21
2023-03-29T07:03:39.897Z,59.34
2023-03-29T07:06:11.724Z,57.32
2023-03-29T07:08:44.163Z,56.31
2023-03-29T07:11:14.264Z,56.69
2023-03-29T07:13:46.545Z,53.03
2023-03-29T07:16:15.543Z,54.74
2023-03-29T07:18:46.133Z,54.12
2023-03-29T07:21:15.052Z,55.42
2023-03-29T07:23:43.642Z,55.64
2023-03-29T07:26:12.146Z,57.19
2023-03-29T07:28:41.311Z,56.63
2023-03-29T07:31:13.083Z,54.16
2023-03-29T07:33:42.244Z,52.68
2023-03-29T07:36:13.916Z,54.79
2023-03-29T07:38:43.111Z,54.61
2023-03-29T07:41:11.634Z,55.10
2023-03-29T07:43:40.149Z,56.02
2023-03-29T07:46:11.234Z,53.12
2023-03-29T07:48:39.781Z,52.69
2023-03-29T07:51:09.227Z,53.62
2023-03-29T07:53:39.955Z,55.12
2023-03-29T07:56:10.570Z,53.85
2023-03-29T07:58:39.018Z,53.33
2023-03-29T08:01:10.951Z,51.10
2023-03-29T08:03:40.769Z,54.35
2023-03-29T08:06:10.304Z,53.41
2023-03-29T08:08:40.326Z,51.91
2023-03-29T08:11:12.878Z,50.72
2023-03-29T08:13:42.011Z,54.14
2023-03-29T08:16:11.287Z,51.10
2023-03-29T08:18:39.747Z,51.83
2023-03-29T08:21:09.089Z,53.49
2023-03-29T08:23:39.174Z,50.32
2023-03-29T08:26:08.687Z,53.68
2023-03-29T08:28:37.156Z,48.92
2023-03-29T08:31:06.035Z,50.03
2023-03-29T08:33:34.606Z,53.29
2023-03-29T08:36:03.207Z,51.89
2023-03-29T08:38:31.836Z,50.18
2023-03-29T08:41:01.871Z,52.88
2023-03-29T08:44:02.613Z,46.75
2023-03-29T08:46:40.314Z,51.45
2023-03-29T08:49:12.204Z,48.57
2023-03-29T08:51:44.949Z,49.14
2023-03-29T08:54:17.950Z,48.02
2023-03-29T08:56:49.740Z,47.37
2023-03-29T08:59:24.624Z,48.50
2023-03-29T09:01:57.216Z,48.09
2023-03-29T09:04:29.680Z,48.40
2023-03-29T09:06:58.290Z,48.94
2023-03-29T09:09:33.727Z,48.57
2023-03-29T09:12:21.226Z,45.46
2023-03-29T09:15:06.740Z,46.09
2023-03-29T09:17:49.812Z,48.58
2023-03-29T09:20:32.135Z,46.14
2023-03-29T09:23:21.115Z,45.68
2023-03-29T09:25:59.636Z,46.31
2023-03-29T09:28:37.214Z,47.01
2023-03-29T09:31:13.817Z,45.64
2023-03-29T09:33:46.075Z,45.20
2023-03-29T09:36:20.068Z,45.83
2023-03-29T09:38:54.237Z,44.05
2023-03-29T09:41:28.328Z,43.53
2023-03-29T09:44:02.001Z,44.98
2023-03-29T09:46:37.630Z,47.09
2023-03-29T09:49:12.398Z,47.58
2023-03-29T09:51:43.470Z,46.32
2023-03-29T09:54:13.341Z,45.58
2023-03-29T09:56:42.273Z,45.47
2023-03-29T09:59:14.192Z,45.25
2023-03-29T10:01:45.965Z,47.01
2023-03-29T10:04:16.746Z,46.47
2023-03-29T10:06:49.501Z,46.27
2023-03-29T10:09:21.598Z,44.80
2023-03-29T10:11:54.619Z,44.25
2023-03-29T10:14:34.563Z,45.15
2023-03-29T10:17:08.752Z,46.09
2023-03-29T10:19:37.418Z,46.54
2023-03-29T10:22:08.996Z,45.81
2023-03-29T10:24:37.488Z,45.02
2023-03-29T10:27:11.764Z,46.57
2023-03-29T10:29:43.840Z,45.16
2023-03-29T10:32:17.955Z,45.85
2023-03-29T10:34:48.170Z,45.37
2023-03-29T10:37:19.669Z,45.84
2023-03-29T10:39:49.657Z,45.49
2023-03-29T10:42:21.449Z,45.35
2023-03-29T10:44:57.640Z,45.27
2023-03-29T10:47:27.194Z,45.47
2023-03-29T10:49:58.904Z,44.85
2023-03-29T10:52:27.760Z,46.29
2023-03-29T10:54:59.293Z,44.49
2023-03-29T10:57:40.926Z,46.72
2023-03-29T11:00:19.758Z,43.39
2023-03-29T11:03:21.776Z,42.94
2023-03-29T11:05:58.374Z,42.53
2023-03-29T11:08:47.340Z,42.09
2023-03-29T11:11:41.339Z,43.60
2023-03-29T11:14:22.187Z,43.32
2023-03-29T11:17:09.441Z,43.88
2023-03-29T11:20:05.257Z,43.57
2023-03-29T11:22:43.858Z,42.82
2023-03-29T11:25:29.795Z,43.12
2023-03-29T11:28:07.637Z,42.40
2023-03-29T11:30:43.557Z,43.43
2023-03-29T11:33:34.202Z,43.07
2023-03-29T11:36:11.362Z,42.01
2023-03-29T11:38:45.286Z,44.96
2023-03-29T11:41:18.782Z,43.23
2023-03-29T11:43:53.682Z,45.50
2023-03-29T11:46:30.069Z,45.27
2023-03-29T11:49:06.449Z,42.62
2023-03-29T11:51:39.776Z,43.54
2023-03-29T11:54:19.086Z,44.10
2023-03-29T11:56:53.415Z,43.03
2023-03-29T11:59:29.491Z,38.13
2023-03-29T12:02:06.647Z,40.42
2023-03-29T12:04:43.915Z,43.01
2023-03-29T12:07:18.000Z,40.56
2023-03-29T12:09:51.691Z,44.04
2023-03-29T12:12:27.516Z,41.17
2023-03-29T12:15:02.679Z,40.24
2023-03-29T12:17:37.407Z,40.76
2023-03-29T12:20:16.887Z,40.25
2023-03-29T12:22:49.101Z,41.77
2023-03-29T12:25:23.276Z,42.00
2023-03-29T12:28:27.291Z,39.65
2023-03-29T12:31:09.373Z,40.34
2023-03-29T12:34:19.006Z,40.41
2023-03-29T12:37:17.693Z,41.45
2023-03-29T12:39:46.422Z,41.37
2023-03-29T12:42:18.656Z,39.18
2023-03-29T12:44:51.874Z,39.87
2023-03-29T12:47:25.434Z,40.02
2023-03-29T12:49:57.853Z,42.08
2023-03-29T12:52:33.235Z,40.00
2023-03-29T12:55:05.562Z,39.97
2023-03-29T12:57:42.749Z,38.13
2023-03-29T13:00:33.569Z,38.74
2023-03-29T13:03:19.994Z,39.04
2023-03-29T13:06:00.550Z,40.25
2023-03-29T13:08:38.034Z,40.81
2023-03-29T13:11:08.292Z,42.20
2023-03-29T13:13:39.509Z,40.50
2023-03-29T13:16:15.917Z,44.04
2023-03-29T13:19:08.416Z,41.68
2023-03-29T13:21:53.913Z,41.89
2023-03-29T13:24:53.932Z,42.30
2023-03-29T13:27:34.196Z,42.32
2023-03-29T13:30:22.821Z,41.75
2023-03-29T13:33:06.655Z,43.12
2023-03-29T13:35:47.292Z,43.28
2023-03-29T13:38:21.572Z,43.96
2023-03-29T13:41:04.714Z,43.37
2023-03-29T13:43:49.626Z,43.87
2023-03-29T13:46:27.079Z,44.74
2023-03-29T13:49:18.227Z,43.76
2023-03-29T13:52:04.564Z,44.76
2023-03-29T13:54:38.775Z,43.61
2023-03-29T13:57:15.012Z,44.28
2023-03-29T13:59:52.893Z,44.10
2023-03-29T14:02:33.999Z,43.86
2023-03-29T14:05:04.324Z,42.51
2023-03-29T14:07:35.335Z,42.66
2023-03-29T14:10:05.277Z,43.57
2023-03-29T14:12:41.979Z,43.42
2023-03-29T14:15:24.694Z,43.60
2023-03-29T14:18:00.222Z,44.94
2023-03-29T14:20:31.849Z,44.34
2023-03-29T14:23:00.513Z,44.24
2023-03-29T14:25:30.781Z,43.01
2023-03-29T14:28:00.606Z,45.44
2023-03-29T14:30:32.049Z,43.51
2023-03-29T14:33:05.240Z,43.01
2023-03-29T14:35:34.922Z,43.85
2023-03-29T14:38:03.726Z,44.40
2023-03-29T14:40:32.663Z,42.75
2023-03-29T14:43:08.044Z,43.61
2023-03-29T14:45:36.819Z,43.26
2023-03-29T14:48:06.303Z,41.48
2023-03-29T14:50:36.443Z,42.42
2023-03-29T14:53:06.858Z,43.53
2023-03-29T14:55:36.700Z,41.95
2023-03-29T14:58:21.841Z,42.13
2023-03-29T15:00:53.354Z,43.05
2023-03-29T15:03:26.332Z,42.45
2023-03-29T15:05:59.114Z,44.75
2023-03-29T15:08:34.194Z,43.52
2023-03-29T15:11:04.125Z,43.30
2023-03-29T15:13:36.424Z,43.62
2023-03-29T15:16:08.361Z,43.12
2023-03-29T15:18:40.624Z,43.91
2023-03-29T15:21:11.816Z,42.42
2023-03-29T15:23:42.612Z,43.72
2023-03-29T15:26:15.858Z,44.00
2023-03-29T15:28:55.066Z,43.71
2023-03-29T15:31:34.886Z,43.69
2023-03-29T15:34:07.636Z,43.25
2023-03-29T15:36:43.250Z,43.44
2023-03-29T15:39:14.580Z,44.24
2023-03-29T15:41:43.242Z,43.84
2023-03-29T15:44:17.353Z,44.26
2023-03-29T15:46:46.000Z,44.56
2023-03-29T15:49:15.865Z,43.93
2023-03-29T15:51:44.356Z,44.15
2023-03-29T15:54:12.953Z,45.37
2023-03-29T15:56:49.878Z,44.14
2023-03-29T15:59:19.955Z,43.99
2023-03-29T16:01:48.895Z,44.72
2023-03-29T16:04:19.796Z,43.93
2023-03-29T16:06:52.867Z,43.07
2023-03-29T16:09:22.180Z,46.08
2023-03-29T16:11:51.719Z,43.58
2023-03-29T16:14:25.439Z,43.64
2023-03-29T16:16:55.736Z,44.34
2023-03-29T16:19:25.165Z,46.80
2023-03-29T16:21:54.524Z,44.95
2023-03-29T16:24:25.245Z,45.84
2023-03-29T16:26:55.959Z,45.94
2023-03-29T16:29:26.930Z,44.20
2023-03-29T16:31:56.379Z,44.94
2023-03-29T16:34:25.525Z,46.40
2023-03-29T16:36:54.280Z,46.12
2023-03-29T16:39:22.934Z,44.59
2023-03-29T16:41:51.436Z,45.52
2023-03-29T16:44:23.605Z,45.15
2023-03-29T16:46:57.476Z,45.17
2023-03-29T16:49:26.161Z,46.33
2023-03-29T16:51:54.748Z,45.34
2023-03-29T16:54:26.033Z,44.91
2023-03-29T16:56:54.524Z,46.26
2023-03-29T16:59:23.292Z,44.75
2023-03-29T17:01:53.218Z,46.07
2023-03-29T17:04:21.872Z,46.39
2023-03-29T17:06:50.598Z,45.76
2023-03-29T17:09:19.086Z,46.27
2023-03-29T17:11:47.597Z,46.43
2023-03-29T17:14:16.153Z,45.62
2023-03-29T17:16:44.873Z,48.00
2023-03-29T17:19:14.750Z,48.84
2023-03-29T17:21:43.613Z,48.27
2023-03-29T17:24:12.057Z,47.03
2023-03-29T17:26:40.467Z,49.77
2023-03-29T17:29:08.979Z,49.35
2023-03-29T17:31:41.102Z,50.97
2023-03-29T17:34:09.627Z,50.38
2023-03-29T17:36:41.244Z,54.89
2023-03-29T17:39:11.024Z,58.44
2023-03-29T17:41:39.615Z,60.81
2023-03-29T17:44:08.267Z,62.45
2023-03-29T17:46:37.917Z,61.54
2023-03-29T17:49:06.776Z,62.39
2023-03-29T17:51:35.365Z,62.98
2023-03-29T17:54:06.161Z,64.66
2023-03-29T17:56:35.019Z,66.45
2023-03-29T17:59:03.496Z,64.62
2023-03-29T18:01:32.862Z,67.51
2023-03-29T18:04:01.358Z,65.65
2023-03-29T18:06:29.842Z,64.89
2023-03-29T18:09:01.391Z,66.48
2023-03-29T18:11:32.380Z,65.57
2023-03-29T18:14:01.669Z,67.09
2023-03-29T18:16:30.177Z,66.79
2023-03-29T18:18:58.646Z,67.65
2023-03-29T18:21:27.516Z,69.01
2023-03-29T18:23:56.992Z,68.13
2023-03-29T18:26:25.858Z,66.90
2023-03-29T18:28:55.759Z,69.20
2023-03-29T18:31:24.534Z,67.61
2023-03-29T18:33:53.030Z,64.07
2023-03-29T18:36:22.028Z,64.22
2023-03-29T18:38:50.508Z,57.56
2023-03-29T18:41:18.923Z,58.36
2023-03-29T18:43:47.763Z,57.41
2023-03-29T18:46:17.692Z,55.17
2023-03-29T18:48:46.577Z,56.46
2023-03-29T18:51:15.064Z,56.96
2023-03-29T18:53:44.431Z,55.98
2023-03-29T18:56:12.967Z,55.83
2023-03-29T18:58:41.517Z,57.10
2023-03-29T19:01:10.947Z,55.27
2023-03-29T19:03:41.801Z,55.17
2023-03-29T19:06:12.040Z,55.59
2023-03-29T19:08:41.366Z,56.63
2023-03-29T19:11:14.507Z,56.52
2023-03-29T19:13:43.227Z,56.31
2023-03-29T19:16:12.254Z,57.26
2023-03-29T19:18:42.199Z,57.72
2023-03-29T19:21:11.075Z,57.93
2023-03-29T19:23:39.947Z,57.81
2023-03-29T19:26:09.186Z,57.87
2023-03-29T19:28:38.093Z,59.29
2023-03-29T19:31:07.179Z,58.52
2023-03-29T19:33:35.644Z,58.36
2023-03-29T19:36:06.226Z,57.87
2023-03-29T19:38:34.947Z,58.10
2023-03-29T19:41:03.468Z,57.39
2023-03-29T19:43:31.936Z,56.70
2023-03-29T19:46:08.391Z,57.17
2023-03-29T19:48:37.075Z,58.30
2023-03-29T19:51:08.194Z,58.45
2023-03-29T19:53:38.734Z,58.32
2023-03-29T19:56:11.102Z,58.66
2023-03-29T19:58:39.683Z,58.64
2023-03-29T20:01:08.189Z,57.02
2023-03-29T20:03:36.797Z,58.54
2023-03-29T20:06:08.140Z,58.47
2023-03-29T20:08:38.884Z,58.06
2023-03-29T20:11:10.151Z,58.21
2023-03-29T20:13:39.897Z,57.86
2023-03-29T20:16:10.209Z,56.57
2023-03-29T20:18:39.541Z,58.04
2023-03-29T20:21:10.559Z,57.70
2023-03-29T20:23:39.585Z,57.78
2023-03-29T20:26:08.617Z,57.00
2023-03-29T20:28:38.002Z,58.01
2023-03-29T20:31:10.526Z,57.76
2023-03-29T20:33:39.808Z,58.38
2023-03-29T20:36:10.085Z,58.69
2023-03-29T20:38:38.688Z,58.37
2023-03-29T20:41:09.546Z,59.09
2023-03-29T20:43:38.384Z,59.78
2023-03-29T20:46:14.647Z,60.35
2023-03-29T20:48:46.084Z,59.16
2023-03-29T20:51:18.420Z,61.29
2023-03-29T20:53:46.965Z,60.53
2023-03-29T20:56:16.064Z,62.29
2023-03-29T20:58:44.579Z,63.88
2023-03-29T21:01:14.313Z,64.88
2023-03-29T21:03:43.350Z,65.31
2023-03-29T21:06:14.054Z,65.90
2023-03-29T21:08:45.643Z,68.13
2023-03-29T21:11:16.324Z,69.87
2023-03-29T21:13:45.582Z,70.96
2023-03-29T21:16:14.466Z,72.99
2023-03-29T21:18:43.460Z,74.43
2023-03-29T21:21:12.986Z,76.41
2023-03-29T21:23:41.456Z,77.06
2023-03-29T21:26:11.381Z,75.76
2023-03-29T21:28:41.045Z,72.74
2023-03-29T21:31:10.339Z,73.15
2023-03-29T21:33:38.809Z,77.23
2023-03-29T21:36:08.307Z,77.41
2023-03-29T21:38:36.860Z,75.48
2023-03-29T21:41:06.915Z,76.12
2023-03-29T21:43:36.745Z,74.58
2023-03-29T21:46:05.601Z,79.08
2023-03-29T21:48:34.509Z,75.79
2023-03-29T21:51:03.501Z,77.17
2023-03-29T21:53:32.154Z,76.63
2023-03-29T21:56:00.691Z,75.50
2023-03-29T21:58:29.166Z,76.02
2023-03-29T22:00:59.056Z,78.44
2023-03-29T22:03:27.800Z,78.51
2023-03-29T22:06:02.701Z,75.26
2023-03-29T22:08:31.804Z,77.57
2023-03-29T22:11:08.243Z,76.13
2023-03-29T22:13:37.238Z,76.09
2023-03-29T22:16:09.190Z,79.38
2023-03-29T22:18:47.011Z,79.22
2023-03-29T22:21:19.669Z,77.30
2023-03-29T22:23:50.922Z,77.31
2023-03-29T22:26:23.574Z,79.54
2023-03-29T22:28:52.801Z,80.55
2023-03-29T22:31:25.109Z,79.50
2023-03-29T22:33:54.409Z,78.38
2023-03-29T22:36:25.179Z,79.66
2023-03-29T22:38:54.507Z,79.31
2023-03-29T22:41:25.296Z,79.73
2023-03-29T22:43:55.857Z,79.10
2023-03-29T22:46:26.770Z,79.93
2023-03-29T22:48:55.330Z,79.64
2023-03-29T22:51:24.121Z,81.59
2023-03-29T22:53:52.646Z,80.82
2023-03-29T22:56:22.055Z,80.57
2023-03-29T22:58:51.089Z,80.18
2023-03-29T23:01:19.856Z,80.12
2023-03-29T23:03:49.944Z,80.75
2023-03-29T23:06:18.392Z,80.83
2023-03-29T23:08:46.857Z,80.90
2023-03-29T23:11:15.334Z,78.51
2023-03-29T23:13:43.800Z,80.31
2023-03-29T23:16:12.366Z,79.57
2023-03-29T23:18:40.958Z,79.36
2023-03-29T23:21:11.038Z,78.06
2023-03-29T23:23:39.808Z,78.78
2023-03-29T23:26:10.590Z,78.13
2023-03-29T23:28:39.125Z,74.50
2023-03-29T23:31:10.772Z,72.87
2023-03-29T23:33:41.412Z,73.23
2023-03-29T23:36:14.336Z,74.12
2023-03-29T23:38:44.656Z,74.43
2023-03-29T23:41:17.058Z,75.40
2023-03-29T23:43:47.186Z,74.69
2023-03-29T23:46:19.100Z,74.83
2023-03-29T23:48:49.053Z,77.68
2023-03-29T23:51:23.403Z,79.55
2023-03-29T23:53:52.370Z,80.58
2023-03-29T23:56:21.568Z,81.13
2023-03-29T23:58:50.566Z,79.48
